11 août 2022

Temps Code Temps Temp. Vue Base cloud Vent METAR/SPECI
07:00
V
24 °C 10 km+ 5.000 ft Var Var 3 kt METAR AYNZ 102100Z VRB03KT 9999 SCT015 SCT025 BKN050 24/22 Q1012
06:00
V
23 °C 10 km+ - Var Var 3 kt METAR AYNZ 102000Z VRB03KT 9999 FEW005 SCT050 23/21 Q1011

10 août 2022

Temps Code Temps Temp. Vue Base cloud Vent METAR/SPECI
18:00
V
27 °C 10 km+ - 080° 080° 10 - 15 kt METAR AYNZ 100800Z 08010G15KT 9999 FEW040 SCT060 27/22 Q1009
17:00
V
28 °C 10 km+ - 100° 100° 15 - 20 kt METAR AYNZ 100700Z 10015G20KT 9999 FEW040 SCT060 28/21 Q1008
16:00
V
32 °C 10 km+ - 090° 090° 15 - 20 kt METAR AYNZ 100600Z 09015G20KT 9999 SCT040 SCT050 32/21 Q1007
15:00
V
33 °C 10 km+ - 090° 090° 10 - 15 kt METAR AYNZ 100500Z 09010G15KT 9999 SCT040 SCT050 33/21 Q1007
14:00
V
33 °C 10 km+ - 080° 080° 5 kt METAR AYNZ 100400Z 08005KT 9999 SCT040 SCT050 33/21 Q1008
13:00
V
32 °C 10 km+ - 180° 180° 4 kt METAR AYNZ 100300Z 18004KT 9999 SCT040 SCT050 32/21 Q1009
12:00
V
31 °C 10 km+ - 150° 150° 5 kt METAR AYNZ 100200Z 15005KT 9999 HZ SCT035 SCT050 31/21 Q1010
10:00
V
27 °C 10 km+ - 290° 290° 5 kt METAR AYNZ 100000Z 29005KT 9999 HZ SCT030 SCT050 27/22 Q1012
08:00
V
25 °C 10 km+ 5.000 ft Var Var 3 kt METAR AYNZ 092200Z VRB03KT 9999 HZ FEW008 FEW025 BKN050 25/21 Q1012
07:00
V
23 °C 10 km+ - Var Var 3 kt METAR AYNZ 092100Z VRB03KT 9999 HZ FEW008 FEW025 SCT050 23/21 Q1011
06:00
V
24 °C 10 km+ 5.000 ft Var Var 3 kt METAR AYNZ 092000Z VRB03KT 9999 HZ FEW005 SCT025 BKN050 24/21 Q1011

9 août 2022

Temps Code Temps Temp. Vue Base cloud Vent METAR/SPECI
19:00
V
27 °C 10 km+ 5.000 ft 080° 080° 10 - 15 kt METAR AYNZ 090900Z 08010G15KT 9999 HZ OVC050 27/21 Q1009
18:00
V
27 °C 10 km+ 5.000 ft 080° 080° 10 - 20 kt METAR AYNZ 090800Z 08010G20KT 9999 HZ BKN050 27/21 Q1009
16:00
V
30 °C 10 km+ 5.000 ft 100° 100° 15 - 20 kt METAR AYNZ 090600Z 10015G20KT 9999 HZ BKN050 30/20 Q1007
15:00
V
32 °C 10 km+ 5.000 ft 090° 090° 15 kt METAR AYNZ 090500Z 09015KT 9999 HZ BKN050 32/19 Q1006
14:00
V
33 °C 10 km+ - 060° 060° 10 kt METAR AYNZ 090400Z 06010KT 9999 HZ SCT050 33/20 Q1007=
13:00
V
31 °C 10 km+ - 060° 060° 5 kt METAR AYNZ 090300Z 06005KT 9999 HZ SCT050 31/20 Q1008
12:00
V
31 °C 10 km+ - 120° 120° 5 kt METAR AYNZ 090200Z 12005KT 9999 HZ SCT030 31/21 Q1009
11:00
V
29 °C 10 km+ - 280° 280° 5 kt METAR AYNZ 090100Z 28005KT 9999 SCT030 SCT060 29/21 Q1010
10:00
V
28 °C 10 km+ - 260° 260° 5 kt METAR AYNZ 090000Z 26005KT 9999 SCT030 28/22 Q1011
09:00
V
25 °C 10 km+ - 340° 340° 5 kt METAR AYNZ 082300Z 34005KT 9999 SCT030 25/20 Q1012=
08:00
V
23 °C 10 km+ 6.000 ft 300° 300° 5 kt METAR AYNZ 082200Z 30005KT 9999 SCT035 BKN060 23/20 Q1012.
07:00
V
22 °C 10 km+ - Var Var 4 kt METAR AYNZ 082100Z VRB04KT 9999 FEW020 SCT040 SCT060 22/20 Q1011 RMK
06:00
V
0 °C 10 km+ - Var Var 4 kt METAR AYNZ 082000Z VRB04KT 9999 RERA SCT025 SCT035 22/20 Q1010=
Données plus anciennes

Nous et des tiers suivons ton comportement sur Internet sur notre site Web à l'aide de cookies. Si tu continues, nous supposons que tu acceptes notre politique en matière de cookies. Apprendre plus